createdAt,value
2022-10-11T00:02:52.974Z,8.85
2022-10-11T00:06:49.527Z,8.89
2022-10-11T00:10:10.861Z,8.91
2022-10-11T00:13:47.609Z,8.90
2022-10-11T00:17:44.494Z,8.89
2022-10-11T00:21:24.140Z,8.84
2022-10-11T00:24:44.777Z,8.81
2022-10-11T00:28:22.386Z,8.82
2022-10-11T00:31:59.984Z,8.79
2022-10-11T00:35:41.770Z,8.78
2022-10-11T00:39:34.119Z,8.77
2022-10-11T00:42:54.554Z,8.76
2022-10-11T00:46:32.400Z,8.80
2022-10-11T00:50:11.552Z,8.82
2022-10-11T00:54:10.990Z,8.84
2022-10-11T00:57:35.214Z,8.89
2022-10-11T01:01:09.533Z,9.01
2022-10-11T01:04:47.627Z,9.10
2022-10-11T01:08:25.007Z,9.16
2022-10-11T01:12:05.523Z,9.17
2022-10-11T01:16:05.087Z,9.19
2022-10-11T01:19:45.908Z,9.21
2022-10-11T01:23:25.629Z,9.24
2022-10-11T01:27:29.060Z,9.29
2022-10-11T01:30:51.692Z,9.37
2022-10-11T01:35:13.780Z,9.45
2022-10-11T01:38:50.709Z,9.50
2022-10-11T01:42:13.572Z,9.51
2022-10-11T01:45:56.415Z,9.49
2022-10-11T01:49:27.602Z,9.47
2022-10-11T01:53:33.557Z,9.48
2022-10-11T01:57:01.016Z,9.50
2022-10-11T02:01:12.002Z,9.53
2022-10-11T02:05:04.674Z,9.57
2022-10-11T02:08:55.229Z,9.62
2022-10-11T02:12:25.311Z,9.62
2022-10-11T02:16:19.278Z,9.58
2022-10-11T02:19:49.655Z,9.59
2022-10-11T02:23:25.519Z,9.57
2022-10-11T02:27:17.398Z,9.57
2022-10-11T02:30:40.696Z,9.58
2022-10-11T02:34:21.197Z,9.60
2022-10-11T02:38:02.686Z,9.64
2022-10-11T02:41:52.629Z,9.68
2022-10-11T02:45:36.818Z,9.70
2022-10-11T02:48:59.731Z,9.66
2022-10-11T02:52:35.762Z,9.61
2022-10-11T02:56:13.600Z,9.54
2022-10-11T02:59:51.232Z,9.47
2022-10-11T03:03:29.257Z,9.43
2022-10-11T03:07:25.488Z,9.40
2022-10-11T03:10:46.325Z,9.40
2022-10-11T03:14:42.889Z,9.45
2022-10-11T03:18:04.120Z,9.47
2022-10-11T03:21:41.613Z,9.45
2022-10-11T03:25:19.222Z,9.44
2022-10-11T03:28:57.032Z,9.42
2022-10-11T03:32:35.119Z,9.40
2022-10-11T03:36:12.175Z,9.35
2022-10-11T03:39:50.109Z,9.31
2022-10-11T03:43:27.766Z,9.31
2022-10-11T03:47:06.251Z,9.32
2022-10-11T03:50:42.839Z,9.38
2022-10-11T03:54:20.626Z,9.44
2022-10-11T03:57:58.329Z,9.50
2022-10-11T04:01:54.751Z,9.52
2022-10-11T04:05:15.888Z,9.54
2022-10-11T04:08:53.338Z,9.53
2022-10-11T04:12:49.810Z,9.52
2022-10-11T04:16:10.237Z,9.52
2022-10-11T04:19:48.425Z,9.53
2022-10-11T04:23:25.693Z,9.59
2022-10-11T04:27:03.243Z,9.66
2022-10-11T04:30:41.172Z,9.73
2022-10-11T04:34:18.998Z,9.79
2022-10-11T04:37:56.708Z,9.85
2022-10-11T04:41:34.621Z,9.86
2022-10-11T04:45:30.608Z,9.81
2022-10-11T04:49:10.258Z,9.79
2022-10-11T04:52:49.946Z,9.78
2022-10-11T04:56:15.086Z,9.83
2022-10-11T04:59:50.311Z,9.89
2022-10-11T05:03:44.649Z,9.92
2022-10-11T05:07:06.672Z,9.94
2022-10-11T05:10:42.933Z,9.93
2022-10-11T05:14:20.534Z,9.89
2022-10-11T05:17:58.247Z,9.85
2022-10-11T05:21:35.847Z,9.84
2022-10-11T05:25:13.519Z,9.88
2022-10-11T05:29:10.070Z,9.94
2022-10-11T05:32:30.639Z,9.93
2022-10-11T05:36:26.815Z,9.91
2022-10-11T05:39:47.351Z,9.90
2022-10-11T05:43:24.981Z,9.91
2022-10-11T05:47:03.321Z,9.92
2022-10-11T05:50:41.180Z,9.92
2022-10-11T05:54:18.125Z,9.94
2022-10-11T05:57:56.954Z,9.92
2022-10-11T06:01:33.501Z,9.91
2022-10-11T06:05:11.011Z,9.93
2022-10-11T06:09:07.779Z,9.96
2022-10-11T06:12:32.384Z,9.98
2022-10-11T06:16:07.721Z,10.04
2022-10-11T06:19:43.890Z,10.10
2022-10-11T06:23:40.500Z,10.19
2022-10-11T06:27:01.030Z,10.27
2022-10-11T06:30:57.705Z,10.33
2022-10-11T06:34:18.556Z,10.35
2022-10-11T06:37:56.276Z,10.36
2022-10-11T06:41:33.905Z,10.39
2022-10-11T06:45:11.642Z,10.41
2022-10-11T06:49:08.163Z,10.46
2022-10-11T06:52:28.932Z,10.54
2022-10-11T06:56:27.975Z,10.60
2022-10-11T06:59:48.883Z,10.70
2022-10-11T07:03:26.344Z,10.81
2022-10-11T07:07:04.212Z,10.93
2022-10-11T07:10:42.138Z,11.05
2022-10-11T07:14:38.406Z,11.22
2022-10-11T07:17:58.968Z,11.39
2022-10-11T07:21:36.804Z,11.59
2022-10-11T07:25:33.137Z,11.77
2022-10-11T07:29:12.484Z,11.94
2022-10-11T07:32:33.275Z,12.12
2022-10-11T07:36:29.670Z,12.29
2022-10-11T07:39:50.785Z,12.44
2022-10-11T07:43:28.192Z,12.57
2022-10-11T07:47:10.964Z,12.67
2022-10-11T07:50:43.724Z,12.74
2022-10-11T07:54:40.306Z,12.79
2022-10-11T07:58:01.208Z,12.86
2022-10-11T08:01:38.950Z,12.86
2022-10-11T08:05:16.618Z,12.83
2022-10-11T08:09:13.081Z,12.83
2022-10-11T08:12:34.616Z,12.73
2022-10-11T08:16:12.803Z,12.55
2022-10-11T08:19:49.422Z,12.47
2022-10-11T08:23:45.901Z,12.40
2022-10-11T08:27:06.566Z,12.36
2022-10-11T08:31:03.846Z,12.35
2022-10-11T08:34:24.516Z,12.30
2022-10-11T08:38:24.303Z,12.20
2022-10-11T08:41:53.130Z,12.15
2022-10-11T08:45:55.484Z,12.06
2022-10-11T08:49:20.021Z,11.96
2022-10-11T08:52:59.634Z,11.90
2022-10-11T08:56:51.004Z,11.90
2022-10-11T09:00:17.226Z,11.96
2022-10-11T09:04:13.983Z,11.93
2022-10-11T09:08:27.888Z,11.87
2022-10-11T09:12:16.740Z,11.85
2022-10-11T09:16:27.818Z,11.85
2022-10-11T09:19:54.549Z,11.84
2022-10-11T09:23:47.972Z,11.84
2022-10-11T09:28:01.650Z,11.86
2022-10-11T09:31:51.880Z,11.88
2022-10-11T09:35:20.751Z,11.86
2022-10-11T09:39:23.930Z,11.92
2022-10-11T09:42:48.323Z,11.93
2022-10-11T09:46:32.358Z,11.93
2022-10-11T09:50:22.316Z,11.97
2022-10-11T09:53:53.036Z,11.99
2022-10-11T09:57:27.938Z,11.99
2022-10-11T10:01:08.675Z,12.07
2022-10-11T10:04:53.971Z,12.14
2022-10-11T10:08:15.290Z,12.17
2022-10-11T10:11:55.374Z,12.26
2022-10-11T10:15:38.389Z,12.31
2022-10-11T10:19:21.544Z,12.37
2022-10-11T10:22:47.792Z,12.48
2022-10-11T10:26:29.059Z,12.52
2022-10-11T10:33:57.363Z,12.41
2022-10-11T10:37:58.851Z,12.34
2022-10-11T10:41:19.848Z,12.36
2022-10-11T10:45:21.177Z,12.39
2022-10-11T10:53:20.913Z,12.41
2022-10-11T10:56:50.315Z,12.44
2022-10-11T11:00:22.722Z,12.48
2022-10-11T11:04:10.786Z,12.60
2022-10-11T11:08:11.549Z,12.87
2022-10-11T11:12:06.301Z,13.25
2022-10-11T11:15:33.111Z,13.58
2022-10-11T11:19:35.475Z,13.89
2022-10-11T11:23:27.302Z,14.15
2022-10-11T11:27:41.059Z,13.96
2022-10-11T11:31:07.799Z,14.30
2022-10-11T11:35:02.257Z,14.32
2022-10-11T11:38:34.280Z,14.43
2022-10-11T11:42:31.904Z,14.27
2022-10-11T11:45:59.911Z,14.27
2022-10-11T11:49:46.177Z,14.59
2022-10-11T11:53:15.393Z,14.92
2022-10-11T11:57:49.044Z,15.23
2022-10-11T12:01:23.482Z,15.59
2022-10-11T12:05:08.642Z,15.86
2022-10-11T12:08:33.631Z,16.11
2022-10-11T12:12:35.620Z,16.17
2022-10-11T12:16:13.733Z,16.26
2022-10-11T12:19:37.516Z,16.30
2022-10-11T12:23:31.269Z,16.43
2022-10-11T12:26:58.338Z,16.45
2022-10-11T12:30:42.865Z,16.52
2022-10-11T12:34:08.292Z,16.70
2022-10-11T12:37:51.660Z,16.83
2022-10-11T12:41:53.106Z,16.74
2022-10-11T12:45:13.870Z,16.49
2022-10-11T12:48:57.818Z,16.55
2022-10-11T12:52:55.147Z,16.66
2022-10-11T12:57:06.350Z,16.85
2022-10-11T13:00:59.917Z,17.25
2022-10-11T13:04:40.244Z,17.57
2022-10-11T13:08:05.909Z,18.26
2022-10-11T13:12:06.183Z,19.17
2022-10-11T13:15:28.674Z,20.71
2022-10-11T13:19:06.348Z,22.34
2022-10-11T13:22:43.296Z,23.60
2022-10-11T13:26:21.430Z,24.40
2022-10-11T13:30:03.750Z,25.26
2022-10-11T13:33:40.603Z,25.64
2022-10-11T13:37:18.763Z,26.08
2022-10-11T13:40:51.385Z,26.63
2022-10-11T13:44:47.445Z,26.98
2022-10-11T13:48:15.515Z,27.20
2022-10-11T13:51:58.530Z,27.59
2022-10-11T13:55:33.419Z,27.68
2022-10-11T13:59:01.765Z,27.67
2022-10-11T14:03:12.991Z,27.47
2022-10-11T14:06:48.205Z,27.55
2022-10-11T14:10:32.316Z,27.64
2022-10-11T14:13:53.076Z,27.58
2022-10-11T14:17:50.815Z,27.29
2022-10-11T14:21:30.284Z,27.18
2022-10-11T14:24:51.694Z,26.76
2022-10-11T14:28:29.384Z,26.73
2022-10-11T14:32:18.837Z,26.60
2022-10-11T14:35:44.745Z,26.62
2022-10-11T14:39:25.493Z,26.52
2022-10-11T14:42:59.998Z,26.13
2022-10-11T14:46:39.388Z,25.54
2022-10-11T14:50:47.354Z,25.27
2022-10-11T14:54:29.742Z,24.73
2022-10-11T14:57:50.673Z,24.11
2022-10-11T15:01:51.157Z,23.41
2022-10-11T15:05:33.868Z,22.72
2022-10-11T15:08:55.562Z,21.54
2022-10-11T15:12:33.219Z,20.48
2022-10-11T15:20:04.945Z,18.68
2022-10-11T15:24:01.246Z,18.09
2022-10-11T15:27:41.901Z,17.43
2022-10-11T15:31:02.719Z,16.90
2022-10-11T15:34:40.286Z,16.49
2022-10-11T15:38:24.188Z,16.13
2022-10-11T15:41:58.310Z,15.80
2022-10-11T15:45:53.609Z,15.43
2022-10-11T15:49:32.925Z,15.02
2022-10-11T15:52:53.573Z,14.62
2022-10-11T15:56:50.015Z,14.24
2022-10-11T16:00:11.380Z,13.87
2022-10-11T16:04:07.565Z,13.46
2022-10-11T16:07:28.328Z,13.01
2022-10-11T16:11:07.290Z,12.61
2022-10-11T16:14:47.050Z,12.20
2022-10-11T16:18:40.353Z,11.86
2022-10-11T16:22:01.138Z,11.57
2022-10-11T16:25:59.691Z,11.26
2022-10-11T16:29:39.299Z,11.01
2022-10-11T16:32:59.789Z,10.79
2022-10-11T16:36:56.255Z,10.53
2022-10-11T16:40:19.820Z,10.29
2022-10-11T16:43:55.959Z,10.06
2022-10-11T16:47:51.572Z,9.85
2022-10-11T16:51:31.403Z,9.62
2022-10-11T16:54:52.910Z,9.41
2022-10-11T16:58:29.454Z,9.24
2022-10-11T17:02:30.020Z,9.08
2022-10-11T17:05:57.804Z,8.89
2022-10-11T17:09:32.200Z,8.75
2022-10-11T17:13:08.492Z,8.62
2022-10-11T17:16:46.070Z,8.47
2022-10-11T17:20:23.750Z,8.30
2022-10-11T17:24:03.693Z,8.11
2022-10-11T17:27:39.154Z,7.97
2022-10-11T17:31:17.204Z,7.81
2022-10-11T17:34:54.940Z,7.68
2022-10-11T17:38:51.779Z,7.62
2022-10-11T17:42:12.391Z,7.54
2022-10-11T17:46:02.180Z,7.45
2022-10-11T17:49:27.764Z,7.38
2022-10-11T17:53:08.319Z,7.34
2022-10-11T17:57:02.290Z,7.26
2022-10-11T18:00:22.792Z,7.21
2022-10-11T18:04:03.274Z,7.18
2022-10-11T18:07:38.113Z,7.16
2022-10-11T18:11:18.568Z,7.14
2022-10-11T18:14:53.628Z,7.09
2022-10-11T18:18:31.241Z,7.03
2022-10-11T18:22:11.329Z,6.95
2022-10-11T18:26:14.466Z,6.86
2022-10-11T18:29:53.773Z,6.78
2022-10-11T18:33:15.794Z,6.70
2022-10-11T18:37:13.083Z,6.55
2022-10-11T18:40:42.257Z,6.44
2022-10-11T18:44:14.492Z,6.33
2022-10-11T18:48:08.911Z,6.28
2022-10-11T18:51:38.519Z,6.22
2022-10-11T18:55:28.606Z,6.14
2022-10-11T18:59:11.837Z,6.05
2022-10-11T19:02:51.415Z,5.96
2022-10-11T19:06:34.990Z,5.89
2022-10-11T19:09:56.004Z,5.86
2022-10-11T19:13:37.653Z,5.56
2022-10-11T19:17:12.529Z,5.36
2022-10-11T19:20:49.119Z,5.22
2022-10-11T19:24:29.582Z,5.19
2022-10-11T19:28:23.675Z,5.20
2022-10-11T19:31:50.996Z,5.26
2022-10-11T19:35:46.321Z,5.27
2022-10-11T19:39:27.842Z,5.16
2022-10-11T19:42:48.674Z,5.06
2022-10-11T19:46:49.922Z,4.95
2022-10-11T19:50:27.773Z,4.87
2022-10-11T19:54:11.125Z,4.79
2022-10-11T19:57:35.363Z,4.66
2022-10-11T20:01:13.503Z,4.51
2022-10-11T20:04:53.186Z,4.43
2022-10-11T20:08:25.796Z,4.37
2022-10-11T20:12:03.530Z,4.36
2022-10-11T20:15:41.097Z,4.35
2022-10-11T20:19:19.575Z,4.34
2022-10-11T20:22:56.580Z,4.28
2022-10-11T20:26:35.162Z,4.22
2022-10-11T20:30:30.632Z,4.19
2022-10-11T20:34:10.861Z,4.10
2022-10-11T20:37:32.605Z,3.98
2022-10-11T20:41:36.342Z,3.91
2022-10-11T20:44:57.100Z,3.86
2022-10-11T20:49:01.325Z,3.88
2022-10-11T20:52:41.501Z,3.87
2022-10-11T20:56:02.691Z,3.93
2022-10-11T20:59:39.886Z,3.90
2022-10-11T21:03:18.039Z,3.83
2022-10-11T21:07:14.119Z,3.73
2022-10-11T21:10:34.835Z,3.58
2022-10-11T21:14:12.629Z,3.49
2022-10-11T21:17:50.727Z,3.41
2022-10-11T21:21:29.559Z,3.37
2022-10-11T21:25:08.363Z,3.35
2022-10-11T21:29:03.435Z,3.33
2022-10-11T21:32:24.415Z,3.28
2022-10-11T21:36:07.134Z,3.20
2022-10-11T21:39:58.620Z,3.14
2022-10-11T21:43:19.557Z,3.09
2022-10-11T21:47:12.787Z,3.03
2022-10-11T21:50:34.944Z,2.96
2022-10-11T21:54:12.812Z,2.91
2022-10-11T21:57:50.343Z,2.86
2022-10-11T22:01:28.096Z,2.85
2022-10-11T22:05:05.805Z,2.86
2022-10-11T22:08:43.344Z,2.84
2022-10-11T22:12:20.933Z,2.77
2022-10-11T22:16:03.559Z,2.75
2022-10-11T22:19:36.583Z,2.76
2022-10-11T22:23:14.046Z,2.69
2022-10-11T22:27:10.561Z,2.62
2022-10-11T22:30:50.011Z,2.58
2022-10-11T22:34:10.471Z,2.56
2022-10-11T22:38:06.995Z,2.48
2022-10-11T22:41:46.224Z,2.51
2022-10-11T22:45:25.722Z,2.56
2022-10-11T22:49:05.452Z,2.52
2022-10-11T22:52:26.407Z,2.54
2022-10-11T22:56:04.254Z,2.56
2022-10-11T22:59:42.121Z,2.56
2022-10-11T23:03:19.857Z,2.49
2022-10-11T23:07:00.166Z,2.39
2022-10-11T23:10:34.681Z,2.30
2022-10-11T23:14:12.593Z,2.25
2022-10-11T23:17:50.057Z,2.29
2022-10-11T23:21:27.780Z,2.36
2022-10-11T23:25:05.975Z,2.41
2022-10-11T23:28:44.290Z,2.41
2022-10-11T23:32:21.395Z,2.39
2022-10-11T23:35:58.506Z,2.34
2022-10-11T23:39:54.941Z,2.32
2022-10-11T23:43:34.410Z,2.33
2022-10-11T23:46:55.181Z,2.32
2022-10-11T23:50:32.863Z,2.36
2022-10-11T23:54:10.718Z,2.42
2022-10-11T23:57:48.333Z,2.46
